Terminal Aerodrome Forecast
Issued by NWS Louisville, KY

Home | Current Version | Previous Version | Text Only | Print | Product List | Glossary On
Versions: 1 2 3 4 5 6 7 8 9 10 11 12 13 14 15
000
FTUS43 KLMK 161800 AAA
TAFLEX
TAF AMD
KLEX 161843Z 1619/1718 01006KT P6SM SCT025 BKN035
     FM162000 02006KT P6SM SCT035
     FM170100 VRB03KT P6SM SKC
     FM170900 VRB02KT 4SM BR SKC
     FM171300 VRB04KT P6SM FEW050=

USA.gov is the U.S. government's official web portal to all federal, state and local government web resources and services.